| time (UTC) | temp F | wind direction | speed MPH | gust MPH | rain 1hr in | rain 24hr in | rain mn in | humidity % | barometer mb |
| 20260509005746 | 58 | 203 | 2.0 | 2.0 | 0.00 | 0.00 | 0.00 | 73 | 1013.5 |
| 20260509005138 | 59 | 203 | 0.0 | 0.0 | 0.00 | 0.00 | 0.00 | 70 | 1013.2 |
| 20260509004522 | 59 | 248 | 1.0 | 1.0 | 0.00 | 0.00 | 0.00 | 71 | 1013.5 |
| 20260509003315 | 60 | 203 | 0.0 | 0.0 | 0.00 | 0.00 | 0.00 | 68 | 1013.2 |
| 20260509002713 | 62 | 203 | 0.0 | 0.0 | 0.00 | 0.00 | 0.00 | 65 | 1013.5 |
| 20260509002119 | 62 | 225 | 2.0 | 2.0 | 0.00 | 0.00 | 0.00 | 63 | 1013.2 |
| 20260509001537 | 63 | 203 | 0.0 | 0.0 | 0.00 | 0.00 | 0.00 | 61 | 1013.5 |
| 20260509000941 | 64 | 225 | 1.0 | 2.0 | 0.00 | 0.00 | 0.00 | 57 | 1013.5 |
| 20260509000311 | 65 | 113 | 0.0 | 3.0 | 0.00 | 0.00 | 0.00 | 57 | 1013.5 |
| 20260508235713 | 66 | 225 | 0.0 | 2.0 | 0.00 | 0.00 | 0.00 | 57 | 1013.5 |
| 20260508235117 | 66 | 203 | 1.0 | 3.0 | 0.00 | 0.00 | 0.00 | 55 | 1013.5 |
| 20260508234534 | 67 | 270 | 2.0 | 2.0 | 0.00 | 0.00 | 0.00 | 51 | 1013.5 |
| 20260508233914 | 70 | 225 | 1.0 | 3.0 | 0.00 | 0.00 | 0.00 | 49 | 1013.5 |
| 20260508233309 | 73 | 180 | 4.0 | 4.0 | 0.00 | 0.00 | 0.00 | 43 | 1013.8 |
| 20260508232725 | 74 | 248 | 0.0 | 4.0 | 0.00 | 0.00 | 0.00 | 38 | 1013.8 |
| 20260508232135 | 75 | 225 | 4.0 | 4.0 | 0.00 | 0.00 | 0.00 | 38 | 1013.5 |
| 20260508231513 | 76 | 45 | 1.0 | 4.0 | 0.00 | 0.00 | 0.00 | 38 | 1013.5 |
| 20260508230947 | 76 | 0 | 4.0 | 4.0 | 0.00 | 0.00 | 0.00 | 38 | 1013.5 |
| 20260508230323 | 74 | 0 | 2.0 | 4.0 | 0.00 | 0.00 | 0.00 | 38 | 1013.5 |
| 20260508225749 | 73 | 0 | 0.0 | 2.0 | 0.00 | 0.00 | 0.00 | 40 | 1013.5 |
| 20260508225148 | 74 | 338 | 5.0 | 5.0 | 0.00 | 0.00 | 0.00 | 39 | 1013.5 |
| 20260508224518 | 74 | 315 | 3.0 | 3.0 | 0.00 | 0.00 | 0.00 | 38 | 1013.5 |
| 20260508223947 | 74 | 90 | 4.0 | 4.0 | 0.00 | 0.00 | 0.00 | 39 | 1013.5 |
| 20260508223318 | 74 | 315 | 2.0 | 4.0 | 0.00 | 0.00 | 0.00 | 40 | 1013.5 |
| 20260508222127 | 74 | 315 | 3.0 | 4.0 | 0.00 | 0.00 | 0.00 | 39 | 1013.5 |
| 20260508221541 | 74 | 248 | 3.0 | 3.0 | 0.00 | 0.00 | 0.00 | 41 | 1013.5 |
| 20260508220935 | 74 | 180 | 3.0 | 4.0 | 0.00 | 0.00 | 0.00 | 40 | 1013.5 |
| 20260508220310 | 74 | 68 | 2.0 | 4.0 | 0.00 | 0.00 | 0.00 | 39 | 1013.5 |
| 20260508215732 | 74 | 23 | 3.0 | 5.0 | 0.00 | 0.00 | 0.00 | 38 | 1013.5 |
| 20260508214546 | 75 | 0 | 7.0 | 7.0 | 0.00 | 0.00 | 0.00 | 38 | 1013.5 |
| 20260508213913 | 74 | 338 | 5.0 | 5.0 | 0.00 | 0.00 | 0.00 | 39 | 1013.5 |
| 20260508212116 | 75 | 0 | 7.0 | 7.0 | 0.00 | 0.00 | 0.00 | 40 | 1013.5 |
| 20260508211515 | 75 | 23 | 4.0 | 4.0 | 0.00 | 0.00 | 0.00 | 41 | 1013.5 |
| 20260508210918 | 75 | 23 | 6.0 | 7.0 | 0.00 | 0.00 | 0.00 | 40 | 1013.5 |
| 20260508210319 | 73 | 23 | 3.0 | 5.0 | 0.00 | 0.00 | 0.00 | 41 | 1013.8 |
| 20260508205739 | 74 | 0 | 5.0 | 5.0 | 0.00 | 0.00 | 0.00 | 41 | 1013.8 |
| 20260508205124 | 74 | 248 | 4.0 | 4.0 | 0.00 | 0.00 | 0.00 | 41 | 1013.8 |
| 20260508204551 | 75 | 203 | 2.0 | 3.0 | 0.00 | 0.00 | 0.00 | 40 | 1014.2 |
| 20260508203919 | 74 | 203 | 1.0 | 5.0 | 0.00 | 0.00 | 0.00 | 39 | 1014.2 |
| 20260508203320 | 74 | 203 | 4.0 | 4.0 | 0.00 | 0.00 | 0.00 | 40 | 1014.5 |
| 20260508202734 | 74 | 68 | 3.0 | 5.0 | 0.00 | 0.00 | 0.00 | 41 | 1014.5 |
| 20260508202114 | 75 | 225 | 3.0 | 5.0 | 0.00 | 0.00 | 0.00 | 38 | 1014.5 |
| 20260508201518 | 75 | 0 | 3.0 | 3.0 | 0.00 | 0.00 | 0.00 | 39 | 1014.9 |
| 20260508200949 | 74 | 203 | 2.0 | 7.0 | 0.00 | 0.00 | 0.00 | 39 | 1014.9 |
| 20260508200343 | 74 | 23 | 2.0 | 8.0 | 0.00 | 0.00 | 0.00 | 39 | 1014.9 |
| 20260508195740 | 74 | 90 | 4.0 | 4.0 | 0.00 | 0.00 | 0.00 | 38 | 1015.2 |
| 20260508195133 | 74 | 203 | 4.0 | 7.0 | 0.00 | 0.00 | 0.00 | 40 | 1015.2 |
| 20260508194552 | 75 | 0 | 7.0 | 7.0 | 0.00 | 0.00 | 0.00 | 38 | 1015.2 |
| 20260508193931 | 74 | 68 | 1.0 | 7.0 | 0.00 | 0.00 | 0.00 | 39 | 1015.5 |
| 20260508193322 | 74 | 113 | 4.0 | 4.0 | 0.00 | 0.00 | 0.00 | 41 | 1015.5 |
| 20260508192726 | 74 | 180 | 3.0 | 3.0 | 0.00 | 0.00 | 0.00 | 41 | 1015.5 |
| 20260508192146 | 75 | 315 | 2.0 | 5.0 | 0.00 | 0.00 | 0.00 | 38 | 1015.5 |
| 20260508191549 | 74 | 68 | 2.0 | 3.0 | 0.00 | 0.00 | 0.00 | 41 | 1015.5 |
| 20260508190935 | 75 | 68 | 3.0 | 4.0 | 0.00 | 0.00 | 0.00 | 40 | 1016.2 |
| 20260508190343 | 75 | 203 | 1.0 | 3.0 | 0.00 | 0.00 | 0.00 | 41 | 1016.2 |
| 20260508185114 | 75 | 315 | 1.0 | 4.0 | 0.00 | 0.00 | 0.00 | 38 | 1016.2 |
| 20260508184545 | 75 | 45 | 3.0 | 3.0 | 0.00 | 0.00 | 0.00 | 38 | 1016.2 |
| 20260508183943 | 76 | 23 | 8.0 | 8.0 | 0.00 | 0.00 | 0.00 | 37 | 1016.5 |
| 20260508183338 | 75 | 45 | 2.0 | 5.0 | 0.00 | 0.00 | 0.00 | 38 | 1016.5 |
| 20260508182736 | 74 | 248 | 3.0 | 3.0 | 0.00 | 0.00 | 0.00 | 42 | 1016.5 |
| 20260508181532 | 73 | 113 | 2.0 | 2.0 | 0.00 | 0.00 | 0.00 | 42 | 1016.9 |
| 20260508180921 | 72 | 158 | 1.0 | 8.0 | 0.00 | 0.00 | 0.00 | 43 | 1016.9 |
| 20260508180349 | 72 | 203 | 5.0 | 5.0 | 0.00 | 0.00 | 0.00 | 46 | 1017.2 |
| 20260508175740 | 71 | 45 | 3.0 | 6.0 | 0.00 | 0.00 | 0.00 | 44 | 1017.2 |
| 20260508175143 | 71 | 180 | 4.0 | 4.0 | 0.00 | 0.00 | 0.00 | 45 | 1017.2 |
| 20260508174511 | 70 | 23 | 5.0 | 5.0 | 0.00 | 0.00 | 0.00 | 43 | 1017.2 |
| 20260508173923 | 72 | 338 | 9.0 | 11.0 | 0.00 | 0.00 | 0.00 | 42 | 1017.2 |
| 20260508173320 | 71 | 23 | 6.0 | 6.0 | 0.00 | 0.00 | 0.00 | 45 | 1017.2 |
| 20260508172740 | 72 | 315 | 3.0 | 4.0 | 0.00 | 0.00 | 0.00 | 44 | 1017.2 |
| 20260508172148 | 71 | 315 | 2.0 | 4.0 | 0.00 | 0.00 | 0.00 | 43 | 1017.6 |
| 20260508170940 | 70 | 158 | 3.0 | 6.0 | 0.00 | 0.00 | 0.00 | 44 | 1017.6 |
| 20260508170314 | 72 | 248 | 4.0 | 7.0 | 0.00 | 0.00 | 0.00 | 44 | 1017.9 |
| 20260508165709 | 71 | 158 | 4.0 | 4.0 | 0.00 | 0.00 | 0.00 | 44 | 1017.9 |
| 20260508165120 | 71 | 113 | 3.0 | 4.0 | 0.00 | 0.00 | 0.00 | 46 | 1018.2 |
| 20260508164533 | 71 | 293 | 1.0 | 1.0 | 0.00 | 0.00 | 0.00 | 45 | 1018.2 |
| 20260508163331 | 71 | 0 | 4.0 | 5.0 | 0.00 | 0.00 | 0.00 | 44 | 1018.6 |
| 20260508162723 | 71 | 338 | 3.0 | 5.0 | 0.00 | 0.00 | 0.00 | 42 | 1018.6 |
| 20260508162130 | 70 | 203 | 1.0 | 4.0 | 0.00 | 0.00 | 0.00 | 45 | 1018.6 |
| 20260508161515 | 70 | 23 | 7.0 | 8.0 | 0.00 | 0.00 | 0.00 | 41 | 1018.6 |
| 20260508160931 | 69 | 0 | 3.0 | 5.0 | 0.00 | 0.00 | 0.00 | 43 | 1018.6 |
| 20260508160338 | 69 | 293 | 1.0 | 6.0 | 0.00 | 0.00 | 0.00 | 42 | 1018.6 |
| 20260508155110 | 69 | 45 | 3.0 | 5.0 | 0.00 | 0.00 | 0.00 | 43 | 1018.9 |
| 20260508154521 | 69 | 270 | 2.0 | 3.0 | 0.00 | 0.00 | 0.00 | 43 | 1018.9 |
| 20260508153937 | 69 | 45 | 2.0 | 4.0 | 0.00 | 0.00 | 0.00 | 45 | 1018.9 |
| 20260508153342 | 69 | 90 | 2.0 | 4.0 | 0.00 | 0.00 | 0.00 | 46 | 1018.9 |
| 20260508152746 | 67 | 0 | 2.0 | 4.0 | 0.00 | 0.00 | 0.00 | 48 | 1018.9 |
| 20260508151536 | 69 | 23 | 5.0 | 5.0 | 0.00 | 0.00 | 0.00 | 48 | 1018.9 |
| 20260508150945 | 68 | 23 | 2.0 | 2.0 | 0.00 | 0.00 | 0.00 | 50 | 1018.9 |
| 20260508145746 | 66 | 248 | 2.0 | 3.0 | 0.00 | 0.00 | 0.00 | 53 | 1018.9 |
| 20260508145148 | 66 | 23 | 1.0 | 3.0 | 0.00 | 0.00 | 0.00 | 52 | 1019.3 |
| 20260508143942 | 64 | 203 | 3.0 | 3.0 | 0.00 | 0.00 | 0.00 | 56 | 1019.3 |
| 20260508142727 | 64 | 180 | 3.0 | 4.0 | 0.00 | 0.00 | 0.00 | 58 | 1018.9 |
| 20260508142148 | 62 | 293 | 2.0 | 2.0 | 0.00 | 0.00 | 0.00 | 61 | 1019.3 |
| 20260508141518 | 63 | 225 | 3.0 | 3.0 | 0.00 | 0.00 | 0.00 | 61 | 1019.3 |
| 20260508140935 | 62 | 23 | 3.0 | 4.0 | 0.00 | 0.00 | 0.00 | 62 | 1019.3 |
| 20260508135748 | 61 | 270 | 2.0 | 2.0 | 0.00 | 0.00 | 0.00 | 65 | 1019.6 |
| 20260508135145 | 58 | 225 | 0.0 | 0.0 | 0.00 | 0.00 | 0.00 | 74 | 1019.6 |
| 20260508134522 | 57 | 45 | 0.0 | 0.0 | 0.00 | 0.00 | 0.00 | 74 | 1019.6 |
| 20260508133915 | 56 | 45 | 0.0 | 1.0 | 0.00 | 0.00 | 0.00 | 75 | 1019.6 |
| 20260508133312 | 57 | 90 | 0.0 | 2.0 | 0.00 | 0.00 | 0.00 | 76 | 1019.6 |
| 20260508132726 | 55 | 180 | 0.0 | 1.0 | 0.00 | 0.00 | 0.00 | 77 | 1019.6 |
| 20260508132122 | 53 | 135 | 0.0 | 0.0 | 0.00 | 0.00 | 0.00 | 80 | 1019.6 |
| 20260508130308 | 51 | 338 | 0.0 | 0.0 | 0.00 | 0.00 | 0.00 | 84 | 1019.6 |
| 20260508125126 | 50 | 270 | 0.0 | 1.0 | 0.00 | 0.00 | 0.00 | 90 | 1019.6 |
| 20260508123936 | 47 | 158 | 0.0 | 0.0 | 0.00 | 0.00 | 0.00 | 93 | 1019.9 |
| 20260508123350 | 47 | 203 | 0.0 | 2.0 | 0.00 | 0.00 | 0.00 | 94 | 1019.9 |
| 20260508122731 | 46 | 180 | 0.0 | 0.0 | 0.00 | 0.00 | 0.00 | 96 | 1019.9 |
| 20260508122120 | 45 | 203 | 0.0 | 0.0 | 0.00 | 0.00 | 0.00 | 98 | 1019.9 |
| 20260508121537 | 45 | 203 | 0.0 | 0.0 | 0.00 | 0.00 | 0.00 | 99 | 1019.9 |
| 20260508120920 | 44 | 203 | 0.0 | 2.0 | 0.00 | 0.00 | 0.00 | 99 | 1019.6 |
| 20260508115710 | 43 | 180 | 0.0 | 0.0 | 0.00 | 0.00 | 0.00 | 99 | 1019.9 |
| 20260508115148 | 42 | 180 | 0.0 | 0.0 | 0.00 | 0.00 | 0.00 | 99 | 1019.6 |
| 20260508114519 | 41 | 180 | 1.0 | 1.0 | 0.00 | 0.00 | 0.00 | 99 | 1019.6 |
| 20260508113930 | 40 | 225 | 0.0 | 1.0 | 0.00 | 0.00 | 0.00 | 99 | 1019.6 |
| 20260508113316 | 39 | 270 | 0.0 | 0.0 | 0.00 | 0.00 | 0.00 | 99 | 1019.6 |
| 20260508112719 | 38 | 338 | 0.0 | 0.0 | 0.00 | 0.00 | 0.00 | 99 | 1019.6 |
| 20260508112143 | 38 | 338 | 0.0 | 0.0 | 0.00 | 0.00 | 0.00 | 99 | 1019.6 |
| 20260508111542 | 38 | 315 | 0.0 | 0.0 | 0.00 | 0.00 | 0.00 | 99 | 1019.3 |
| 20260508110922 | 38 | 293 | 0.0 | 0.0 | 0.00 | 0.00 | 0.00 | 99 | 1019.3 |
| 20260508110326 | 38 | 293 | 0.0 | 0.0 | 0.00 | 0.00 | 0.00 | 99 | 1019.3 |
| 20260508105142 | 38 | 158 | 0.0 | 0.0 | 0.00 | 0.00 | 0.00 | 99 | 1018.9 |
| 20260508103936 | 38 | 338 | 0.0 | 0.0 | 0.00 | 0.00 | 0.00 | 99 | 1018.9 |
| 20260508103338 | 38 | 293 | 0.0 | 2.0 | 0.00 | 0.00 | 0.00 | 99 | 1019.3 |
| 20260508102715 | 38 | 270 | 0.0 | 0.0 | 0.00 | 0.00 | 0.00 | 99 | 1019.3 |
| 20260508102115 | 38 | 338 | 0.0 | 0.0 | 0.00 | 0.00 | 0.00 | 99 | 1018.9 |
| 20260508101512 | 38 | 270 | 0.0 | 0.0 | 0.00 | 0.00 | 0.00 | 99 | 1018.9 |
| 20260508100938 | 38 | 270 | 0.0 | 0.0 | 0.00 | 0.00 | 0.00 | 99 | 1018.9 |
| 20260508100331 | 38 | 0 | 0.0 | 1.0 | 0.00 | 0.00 | 0.00 | 99 | 1018.9 |
| 20260508095748 | 38 | 293 | 0.0 | 0.0 | 0.00 | 0.00 | 0.00 | 99 | 1018.9 |
| 20260508095130 | 38 | 293 | 0.0 | 0.0 | 0.00 | 0.00 | 0.00 | 99 | 1018.9 |
| 20260508094522 | 38 | 270 | 0.0 | 0.0 | 0.00 | 0.00 | 0.00 | 99 | 1018.9 |
| 20260508093943 | 38 | 0 | 0.0 | 1.0 | 0.00 | 0.00 | 0.00 | 99 | 1018.9 |
| 20260508092722 | 38 | 270 | 0.0 | 0.0 | 0.00 | 0.00 | 0.00 | 99 | 1018.9 |
| 20260508092142 | 38 | 270 | 0.0 | 0.0 | 0.00 | 0.00 | 0.00 | 99 | 1018.9 |
| 20260508091528 | 38 | 203 | 0.0 | 0.0 | 0.00 | 0.00 | 0.00 | 99 | 1018.9 |
| 20260508090932 | 38 | 270 | 0.0 | 1.0 | 0.00 | 0.00 | 0.00 | 99 | 1018.6 |
| 20260508085139 | 37 | 338 | 0.0 | 0.0 | 0.00 | 0.00 | 0.00 | 99 | 1018.6 |
| 20260508084547 | 37 | 270 | 0.0 | 0.0 | 0.00 | 0.00 | 0.00 | 99 | 1018.6 |
| 20260508083912 | 37 | 270 | 0.0 | 1.0 | 0.00 | 0.00 | 0.00 | 99 | 1018.6 |
| 20260508083313 | 37 | 270 | 0.0 | 0.0 | 0.00 | 0.00 | 0.00 | 99 | 1018.6 |
| 20260508082735 | 37 | 270 | 0.0 | 0.0 | 0.00 | 0.00 | 0.00 | 99 | 1018.6 |
| 20260508082150 | 37 | 338 | 0.0 | 0.0 | 0.00 | 0.00 | 0.00 | 99 | 1018.6 |
| 20260508081537 | 37 | 293 | 0.0 | 0.0 | 0.00 | 0.00 | 0.00 | 99 | 1018.6 |
| 20260508080328 | 37 | 248 | 0.0 | 0.0 | 0.00 | 0.00 | 0.00 | 99 | 1018.6 |
| 20260508075731 | 36 | 248 | 0.0 | 0.0 | 0.00 | 0.00 | 0.00 | 99 | 1018.6 |
| 20260508075120 | 37 | 270 | 0.0 | 0.0 | 0.00 | 0.00 | 0.00 | 99 | 1018.6 |
| 20260508074529 | 37 | 270 | 0.0 | 0.0 | 0.00 | 0.00 | 0.00 | 99 | 1018.6 |
| 20260508073327 | 37 | 293 | 0.0 | 0.0 | 0.00 | 0.00 | 0.00 | 99 | 1018.6 |
| 20260508072733 | 37 | 293 | 0.0 | 0.0 | 0.00 | 0.00 | 0.00 | 99 | 1018.6 |
| 20260508072115 | 38 | 270 | 0.0 | 0.0 | 0.00 | 0.00 | 0.00 | 99 | 1018.2 |
| 20260508071537 | 37 | 293 | 0.0 | 0.0 | 0.00 | 0.00 | 0.00 | 99 | 1018.6 |
| 20260508070950 | 38 | 225 | 0.0 | 0.0 | 0.00 | 0.00 | 0.00 | 99 | 1018.2 |
| 20260508070338 | 38 | 225 | 0.0 | 1.0 | 0.00 | 0.00 | 0.00 | 99 | 1018.2 |
| 20260508065738 | 38 | 225 | 0.0 | 0.0 | 0.00 | 0.00 | 0.00 | 99 | 1018.6 |
| 20260508065133 | 38 | 248 | 0.0 | 0.0 | 0.00 | 0.00 | 0.00 | 99 | 1018.2 |
| 20260508064520 | 39 | 203 | 0.0 | 0.0 | 0.00 | 0.00 | 0.00 | 99 | 1018.6 |
| 20260508063925 | 38 | 270 | 0.0 | 0.0 | 0.00 | 0.00 | 0.00 | 99 | 1018.6 |
| 20260508063318 | 38 | 270 | 0.0 | 0.0 | 0.00 | 0.00 | 0.00 | 99 | 1018.6 |
| 20260508062742 | 38 | 270 | 0.0 | 0.0 | 0.00 | 0.00 | 0.00 | 99 | 1018.6 |
| 20260508062146 | 38 | 270 | 0.0 | 0.0 | 0.00 | 0.00 | 0.00 | 99 | 1018.6 |
| 20260508061530 | 39 | 225 | 0.0 | 0.0 | 0.00 | 0.00 | 0.00 | 99 | 1018.6 |
| 20260508060909 | 40 | 248 | 0.0 | 0.0 | 0.00 | 0.00 | 0.00 | 99 | 1018.6 |
| 20260508060341 | 39 | 248 | 0.0 | 0.0 | 0.00 | 0.00 | 0.00 | 99 | 1018.6 |
| 20260508055751 | 39 | 270 | 0.0 | 0.0 | 0.00 | 0.00 | 0.00 | 99 | 1018.6 |
| 20260508055141 | 39 | 225 | 0.0 | 0.0 | 0.00 | 0.00 | 0.00 | 99 | 1018.6 |
| 20260508054544 | 39 | 225 | 0.0 | 0.0 | 0.00 | 0.00 | 0.00 | 99 | 1018.6 |
| 20260508052737 | 40 | 203 | 0.0 | 0.0 | 0.00 | 0.00 | 0.00 | 99 | 1018.6 |
| 20260508052132 | 40 | 248 | 0.0 | 0.0 | 0.00 | 0.00 | 0.00 | 99 | 1018.6 |
| 20260508051526 | 40 | 270 | 0.0 | 0.0 | 0.00 | 0.00 | 0.00 | 99 | 1018.6 |
| 20260508050945 | 40 | 248 | 0.0 | 0.0 | 0.00 | 0.00 | 0.00 | 99 | 1018.6 |
| 20260508050309 | 40 | 225 | 0.0 | 0.0 | 0.00 | 0.00 | 0.00 | 99 | 1018.6 |
| 20260508045724 | 40 | 248 | 0.0 | 0.0 | 0.00 | 0.00 | 0.00 | 99 | 1018.2 |
| 20260508045128 | 40 | 270 | 0.0 | 0.0 | 0.00 | 0.00 | 0.00 | 99 | 1018.2 |
| 20260508044542 | 41 | 248 | 0.0 | 0.0 | 0.00 | 0.00 | 0.00 | 99 | 1018.2 |
| 20260508043936 | 41 | 225 | 0.0 | 0.0 | 0.00 | 0.00 | 0.00 | 99 | 1018.6 |
| 20260508043347 | 41 | 225 | 0.0 | 0.0 | 0.00 | 0.00 | 0.00 | 99 | 1018.2 |
| 20260508042723 | 41 | 225 | 0.0 | 0.0 | 0.00 | 0.00 | 0.00 | 99 | 1018.2 |
| 20260508042141 | 42 | 225 | 0.0 | 0.0 | 0.00 | 0.00 | 0.00 | 99 | 1018.6 |
| 20260508041532 | 42 | 203 | 0.0 | 0.0 | 0.00 | 0.00 | 0.00 | 99 | 1018.2 |
| 20260508040318 | 42 | 203 | 0.0 | 0.0 | 0.00 | 0.00 | 0.00 | 99 | 1018.2 |
| 20260508035120 | 42 | 225 | 0.0 | 1.0 | 0.00 | 0.00 | 0.00 | 99 | 1018.2 |
| 20260508034526 | 43 | 203 | 0.0 | 0.0 | 0.00 | 0.00 | 0.00 | 99 | 1018.2 |
| 20260508033916 | 43 | 180 | 0.0 | 0.0 | 0.00 | 0.00 | 0.00 | 99 | 1018.2 |
| 20260508033321 | 43 | 225 | 0.0 | 1.0 | 0.00 | 0.00 | 0.00 | 99 | 1018.2 |
| 20260508032734 | 44 | 203 | 1.0 | 2.0 | 0.00 | 0.00 | 0.00 | 99 | 1018.2 |
| 20260508032146 | 44 | 158 | 0.0 | 0.0 | 0.00 | 0.00 | 0.00 | 99 | 1018.2 |
| 20260508031526 | 44 | 158 | 0.0 | 0.0 | 0.00 | 0.00 | 0.00 | 99 | 1018.2 |
| 20260508030931 | 44 | 180 | 1.0 | 1.0 | 0.00 | 0.00 | 0.00 | 99 | 1017.9 |
| 20260508030311 | 44 | 203 | 0.0 | 1.0 | 0.00 | 0.00 | 0.00 | 99 | 1017.6 |
| 20260508025719 | 45 | 225 | 0.0 | 1.0 | 0.00 | 0.00 | 0.00 | 99 | 1017.6 |
| 20260508025114 | 45 | 203 | 1.0 | 1.0 | 0.00 | 0.00 | 0.00 | 99 | 1017.6 |
| 20260508024525 | 45 | 203 | 2.0 | 2.0 | 0.00 | 0.00 | 0.00 | 99 | 1017.6 |
| 20260508023946 | 46 | 203 | 1.0 | 2.0 | 0.00 | 0.00 | 0.00 | 99 | 1017.2 |
| 20260508023341 | 46 | 203 | 1.0 | 2.0 | 0.00 | 0.00 | 0.00 | 99 | 1017.2 |
| 20260508022723 | 46 | 203 | 1.0 | 2.0 | 0.00 | 0.00 | 0.00 | 98 | 1017.2 |
| 20260508021515 | 47 | 203 | 0.0 | 0.0 | 0.00 | 0.00 | 0.00 | 96 | 1017.2 |
| 20260508020945 | 47 | 203 | 0.0 | 0.0 | 0.00 | 0.00 | 0.00 | 96 | 1016.9 |
| 20260508020349 | 47 | 203 | 0.0 | 1.0 | 0.00 | 0.00 | 0.00 | 95 | 1016.9 |
| 20260508015738 | 48 | 203 | 0.0 | 0.0 | 0.00 | 0.00 | 0.00 | 94 | 1016.9 |
| 20260508015145 | 48 | 203 | 1.0 | 1.0 | 0.00 | 0.00 | 0.00 | 93 | 1016.9 |
| 20260508014517 | 48 | 203 | 1.0 | 1.0 | 0.00 | 0.00 | 0.00 | 91 | 1016.5 |
| 20260508012725 | 50 | 180 | 2.0 | 2.0 | 0.00 | 0.00 | 0.00 | 88 | 1016.2 |
| 20260508011528 | 51 | 203 | 1.0 | 1.0 | 0.00 | 0.00 | 0.00 | 84 | 1016.2 |
| 20260508010935 | 51 | 180 | 0.0 | 2.0 | 0.00 | 0.00 | 0.00 | 83 | 1016.2 |
| 20260508010349 | 52 | 158 | 1.0 | 1.0 | 0.00 | 0.00 | 0.00 | 81 | 1016.2 |